Aérodrome :
LOGIN :

S'inscrire | Disclaimer

   EN    FR    IT 

 










Légende :    VFR   VFR Marginal   IFR   IFR Intensif   IFR Très Intensif
Visi : 
Plafond : 
>= 8 km
>= 3000ft
5 à 8 km
1000 à 3000 ft
1500m à 5 km
500 à 1000 ft
800 à 1500m
200 à 500 ft
< 800m
< 200 ft
Symboles :   Orages  Brouillard  Fortes neiges  Fortes précipitations  Vent > 20 kt
SIGMETs :   Divers  Orages  Givrage  Turbulence  Onde Orograph.  Cendres Volcan.






- Altitude de l'aérodrome : 286 ft
- Code IATA : TRF


ENTO - Sandefjord , Torp

DERNIER METAR :
  • 190650Z 33008KT CAVOK 04/M04 Q1023 NOSIG

METARs EXPIRÉS :
  • 190620Z 33005KT 310V010 CAVOK 04/M03 Q1022 NOSIG
  • 190550Z 32012KT CAVOK 05/M03 Q1021 NOSIG
  • 190450Z 32007KT CAVOK 05/M03 Q1020
  • 190420Z AUTO 29006KT 9999 SCT130/// 04/M02 Q1019
  • 190350Z AUTO 27006KT 9999 BKN140/// 04/M02 Q1019

TAF TAF ENTO
Valide du 19 à 06h jusqu'au 20 à 06h UTC


1906/2006 29008KT CAVOK



MET'MAP, la Météo Aéronautique d'un coup d'oeil ! - Copyright ORBIFLY Décembre 2007 - Disclaimer

ORBIFLY MET'MAP TEAM :

Programmation & Développement : Alexandra Zaïnal
Sur une idée originale de : Baudouin d'Aumeries
Assistance à la programmation : Marc-Olivier Méhu
Soutien technique & logistique : Manuel Goepfert

Contact : metmap@orbifly.com




SOURCES & CREDITS :

   NOAA